Time;durP1;ratioP1;P1;durP2;ratioP2;P2;SDS_P1;SDS_P2;PMS_P1;PMS_P2;Temp;Humidity;BMP_temperature;BMP_pressure;BME280_temperature;BME280_humidity;BME280_pressure;Samples;Min_cycle;Max_cycle;Signal;HPM_P1;HPM_P2
2022/08/22 00:01:44;;;;;;;8.85;1.85;;;;;;;;;;5000890;28;20051;-86
2022/08/22 00:04:16;;;;;;;4.78;1.23;;;;;;;;;;4994866;28;20106;-85
2022/08/22 00:06:51;;;;;;;4.95;1.80;;;;;;;;;;4994326;28;20071;-85
2022/08/22 00:09:36;;;;;;;3.63;1.25;;;;;;;;;;4932616;28;20048;-85
2022/08/22 00:12:05;;;;;;;6.97;2.13;;;;;;;;;;4930395;28;20035;-85
2022/08/22 00:14:42;;;;;;;3.05;1.48;;;;;;;;;;5010104;28;20044;-86
2022/08/22 00:17:28;;;;;;;4.95;1.85;;;;;;;;;;4928254;28;20819;-86
2022/08/22 00:19:55;;;;;;;4.10;1.60;;;;;;;;;;5011621;28;20079;-86
2022/08/22 00:22:30;;;;;;;4.57;1.48;;;;;;;;;;5011746;28;20036;-86
2022/08/22 00:24:57;;;;;;;4.53;1.85;;;;;;;;;;4929744;28;20055;-85
2022/08/22 00:27:28;;;;;;;6.47;1.63;;;;;;;;;;4930512;28;20115;-86
2022/08/22 00:30:14;;;;;;;7.85;2.03;;;;;;;;;;4932777;28;20187;-86
2022/08/22 00:32:50;;;;;;;4.07;1.77;;;;;;;;;;5011408;28;20772;-86
2022/08/22 00:35:48;;;;;;;2.42;1.27;;;;;;;;;;4929386;28;20151;-85
2022/08/22 00:38:17;;;;;;;6.93;1.58;;;;;;;;;;4966660;28;20087;-86
2022/08/22 00:40:53;;;;;;;7.03;2.35;;;;;;;;;;5010760;28;20425;-85
2022/08/22 00:43:49;;;;;;;3.38;1.30;;;;;;;;;;4931044;28;20078;-86
2022/08/22 00:46:26;;;;;;;2.78;2.13;;;;;;;;;;5010014;28;20628;-85
2022/08/22 00:48:59;;;;;;;4.93;1.65;;;;;;;;;;5011548;28;20735;-84
2022/08/22 00:51:29;;;;;;;4.15;1.50;;;;;;;;;;4929376;28;20057;-85
2022/08/22 00:54:03;;;;;;;2.75;1.35;;;;;;;;;;4997636;28;20043;-85
2022/08/22 00:56:47;;;;;;;4.55;1.52;;;;;;;;;;4929174;28;20046;-85
2022/08/22 00:59:19;;;;;;;7.45;1.60;;;;;;;;;;4929851;28;20846;-85
2022/08/22 01:02:00;;;;;;;2.83;1.40;;;;;;;;;;4995055;28;20054;-85
2022/08/22 01:04:41;;;;;;;5.15;1.63;;;;;;;;;;4998296;28;20044;-84
2022/08/22 01:07:36;;;;;;;3.20;1.48;;;;;;;;;;5010766;28;20448;-83
2022/08/22 01:10:14;;;;;;;5.00;2.10;;;;;;;;;;5012266;28;20764;-84
2022/08/22 01:12:43;;;;;;;3.65;1.55;;;;;;;;;;5005927;28;20058;-84
2022/08/22 01:15:11;;;;;;;6.65;1.55;;;;;;;;;;5020536;28;20170;-83
2022/08/22 01:17:44;;;;;;;5.55;1.48;;;;;;;;;;5010300;28;20050;-84
2022/08/22 01:20:10;;;;;;;3.38;1.20;;;;;;;;;;5021903;28;20551;-83
2022/08/22 01:22:42;;;;;;;3.53;1.63;;;;;;;;;;5020691;28;20050;-83
2022/08/22 01:25:17;;;;;;;4.95;2.00;;;;;;;;;;5021160;28;20046;-83
2022/08/22 01:27:56;;;;;;;4.13;1.30;;;;;;;;;;5006504;28;20100;-83
2022/08/22 01:30:41;;;;;;;3.90;1.42;;;;;;;;;;5007195;28;20349;-84
2022/08/22 01:33:19;;;;;;;7.25;2.40;;;;;;;;;;5006384;28;20046;-85
2022/08/22 01:36:02;;;;;;;4.40;2.55;;;;;;;;;;5005458;28;20048;-84
2022/08/22 01:38:31;;;;;;;4.95;1.77;;;;;;;;;;5006924;28;20042;-83
2022/08/22 01:41:05;;;;;;;5.22;1.35;;;;;;;;;;5007650;28;20038;-85
2022/08/22 01:43:50;;;;;;;5.22;1.65;;;;;;;;;;5006592;28;20054;-85
2022/08/22 01:46:35;;;;;;;3.83;1.88;;;;;;;;;;5004249;28;20112;-84
2022/08/22 01:49:10;;;;;;;2.45;1.30;;;;;;;;;;5005359;28;20033;-84
2022/08/22 01:51:44;;;;;;;4.20;1.38;;;;;;;;;;5003422;28;20084;-84
2022/08/22 01:54:23;;;;;;;6.57;1.50;;;;;;;;;;5022528;28;20081;-84
2022/08/22 01:56:49;;;;;;;2.40;1.13;;;;;;;;;;5006127;28;20572;-84
2022/08/22 01:59:34;;;;;;;3.47;1.73;;;;;;;;;;5019830;28;20038;-84
2022/08/22 02:02:09;;;;;;;3.20;1.50;;;;;;;;;;5011502;28;20049;-84
2022/08/22 02:04:54;;;;;;;2.53;1.52;;;;;;;;;;5006269;28;20100;-84
2022/08/22 02:07:29;;;;;;;4.00;2.10;;;;;;;;;;5021738;28;20567;-84
2022/08/22 02:10:14;;;;;;;2.17;1.23;;;;;;;;;;5020777;28;20542;-84
2022/08/22 02:12:40;;;;;;;3.45;1.38;;;;;;;;;;5022660;28;20034;-84
2022/08/22 02:15:36;;;;;;;7.47;2.20;;;;;;;;;;5021739;28;20057;-84
2022/08/22 02:18:02;;;;;;;4.82;2.10;;;;;;;;;;4951152;28;20075;-84
2022/08/22 02:20:38;;;;;;;4.35;1.63;;;;;;;;;;5007217;28;20129;-84
2022/08/22 02:23:23;;;;;;;3.60;1.67;;;;;;;;;;5020253;28;20038;-84
2022/08/22 02:26:02;;;;;;;2.53;1.50;;;;;;;;;;5020702;28;20675;-84
2022/08/22 02:28:39;;;;;;;3.88;1.98;;;;;;;;;;5005655;28;20045;-84
2022/08/22 02:31:11;;;;;;;3.35;1.25;;;;;;;;;;5004471;28;20081;-84
2022/08/22 02:33:37;;;;;;;4.30;1.60;;;;;;;;;;5005039;28;20052;-84
2022/08/22 02:36:13;;;;;;;3.53;1.30;;;;;;;;;;5006246;28;20518;-84
2022/08/22 02:38:49;;;;;;;5.07;1.42;;;;;;;;;;5018873;28;20146;-84
2022/08/22 02:41:24;;;;;;;3.13;1.35;;;;;;;;;;5020091;28;20120;-84
2022/08/22 02:44:01;;;;;;;4.82;1.85;;;;;;;;;;4985548;28;20062;-84
2022/08/22 02:46:30;;;;;;;6.07;2.10;;;;;;;;;;5003941;28;20050;-84
2022/08/22 02:48:59;;;;;;;3.35;1.92;;;;;;;;;;5005429;28;21280;-83
2022/08/22 02:51:26;;;;;;;5.03;2.45;;;;;;;;;;5005572;28;20038;-84
2022/08/22 02:54:07;;;;;;;4.78;1.58;;;;;;;;;;5004850;28;20085;-84
2022/08/22 02:56:42;;;;;;;3.88;1.50;;;;;;;;;;5001778;28;20073;-84
2022/08/22 02:59:24;;;;;;;5.05;2.28;;;;;;;;;;5003239;28;20140;-84
2022/08/22 03:01:50;;;;;;;4.22;1.65;;;;;;;;;;5002524;28;20155;-84
2022/08/22 03:04:17;;;;;;;3.95;2.13;;;;;;;;;;5018501;28;20058;-82
2022/08/22 03:07:00;;;;;;;4.07;1.38;;;;;;;;;;5019838;28;20559;-84
2022/08/22 03:09:30;;;;;;;2.90;1.60;;;;;;;;;;5019722;28;20357;-84
2022/08/22 03:12:13;;;;;;;3.80;1.50;;;;;;;;;;5005985;28;20540;-84
2022/08/22 03:14:43;;;;;;;4.70;1.83;;;;;;;;;;5005160;28;20043;-84
2022/08/22 03:17:09;;;;;;;4.28;1.63;;;;;;;;;;5002040;28;20062;-83
2022/08/22 03:19:45;;;;;;;6.32;1.40;;;;;;;;;;5006410;28;20441;-84
2022/08/22 03:22:22;;;;;;;4.72;1.60;;;;;;;;;;5019857;28;20236;-85
2022/08/22 03:24:54;;;;;;;2.08;1.00;;;;;;;;;;5001819;28;20113;-84
2022/08/22 03:27:26;;;;;;;4.25;1.90;;;;;;;;;;5001844;28;20047;-84
2022/08/22 03:29:55;;;;;;;2.97;1.38;;;;;;;;;;5024205;28;20053;-84
2022/08/22 03:32:22;;;;;;;8.55;1.70;;;;;;;;;;5023906;28;20064;-85
2022/08/22 03:34:56;;;;;;;2.70;1.25;;;;;;;;;;5007823;28;20436;-84
2022/08/22 03:37:31;;;;;;;5.28;1.25;;;;;;;;;;5022103;28;20046;-84
2022/08/22 03:40:00;;;;;;;5.25;1.55;;;;;;;;;;5004630;28;20038;-84
2022/08/22 03:42:45;;;;;;;2.95;1.23;;;;;;;;;;5022740;28;20050;-84
2022/08/22 03:45:14;;;;;;;7.45;1.52;;;;;;;;;;5022514;28;20069;-84
2022/08/22 03:47:43;;;;;;;3.50;1.58;;;;;;;;;;5022111;28;20636;-84
2022/08/22 03:50:09;;;;;;;3.05;1.25;;;;;;;;;;5005598;28;20081;-84
2022/08/22 03:53:05;;;;;;;3.03;1.05;;;;;;;;;;5007843;28;20042;-84
2022/08/22 03:55:31;;;;;;;5.63;2.30;;;;;;;;;;5005996;28;20808;-84
2022/08/22 03:57:57;;;;;;;4.65;2.08;;;;;;;;;;5007509;28;20104;-85
2022/08/22 04:00:32;;;;;;;6.38;1.95;;;;;;;;;;5005564;28;20042;-84
2022/08/22 04:03:19;;;;;;;3.40;1.30;;;;;;;;;;5008412;28;20047;-84
2022/08/22 04:05:55;;;;;;;2.30;1.90;;;;;;;;;;4997371;28;20062;-84
2022/08/22 04:08:24;;;;;;;4.57;1.33;;;;;;;;;;4996484;28;20058;-85
2022/08/22 04:11:09;;;;;;;2.47;1.30;;;;;;;;;;4995070;28;20048;-85
2022/08/22 04:13:39;;;;;;;4.20;1.48;;;;;;;;;;5012217;28;20044;-85
2022/08/22 04:16:13;;;;;;;3.63;1.63;;;;;;;;;;4928677;28;20102;-86
2022/08/22 04:18:57;;;;;;;2.33;1.40;;;;;;;;;;5009818;28;20055;-86
2022/08/22 04:21:23;;;;;;;4.25;1.73;;;;;;;;;;4931309;28;20044;-85
2022/08/22 04:23:49;;;;;;;3.67;1.80;;;;;;;;;;4993502;28;20075;-84
2022/08/22 04:26:23;;;;;;;4.25;1.23;;;;;;;;;;5010228;28;20041;-84
2022/08/22 04:28:52;;;;;;;2.40;1.27;;;;;;;;;;4929735;28;20074;-85
2022/08/22 04:31:23;;;;;;;5.32;1.60;;;;;;;;;;4994947;28;20046;-86
2022/08/22 04:33:59;;;;;;;2.20;1.23;;;;;;;;;;5010518;28;20047;-84
2022/08/22 04:36:39;;;;;;;3.25;1.20;;;;;;;;;;5009795;28;20114;-86
2022/08/22 04:39:17;;;;;;;6.55;1.42;;;;;;;;;;4994195;28;20054;-87
2022/08/22 04:41:59;;;;;;;3.67;1.58;;;;;;;;;;4993972;28;20689;-86
2022/08/22 04:44:45;;;;;;;3.60;2.30;;;;;;;;;;4930242;28;20037;-86
2022/08/22 04:47:30;;;;;;;3.55;1.50;;;;;;;;;;4930082;28;20055;-87
2022/08/22 04:50:03;;;;;;;4.25;1.42;;;;;;;;;;5004679;28;20150;-85
2022/08/22 04:52:48;;;;;;;3.97;1.33;;;;;;;;;;5000075;28;20072;-85
2022/08/22 04:55:17;;;;;;;3.78;1.63;;;;;;;;;;5009950;28;20041;-86
2022/08/22 04:57:46;;;;;;;4.43;1.55;;;;;;;;;;4928891;28;20049;-85
2022/08/22 05:00:13;;;;;;;4.20;2.30;;;;;;;;;;5003627;28;20058;-86
2022/08/22 05:02:40;;;;;;;5.60;1.73;;;;;;;;;;5010532;28;20029;-86
2022/08/22 05:05:14;;;;;;;3.60;1.48;;;;;;;;;;4929588;28;20204;-86
2022/08/22 05:07:43;;;;;;;4.15;1.58;;;;;;;;;;4931884;28;20114;-85
2022/08/22 05:10:32;;;;;;;3.97;1.88;;;;;;;;;;5008992;28;20532;-86
2022/08/22 05:13:01;;;;;;;3.67;1.45;;;;;;;;;;5000473;28;20048;-86
2022/08/22 05:15:30;;;;;;;5.88;1.77;;;;;;;;;;4929844;28;20569;-86
2022/08/22 05:17:59;;;;;;;2.47;1.55;;;;;;;;;;4995324;28;20070;-86
2022/08/22 05:20:27;;;;;;;6.00;2.10;;;;;;;;;;4926825;28;20116;-86
2022/08/22 05:22:58;;;;;;;3.83;1.80;;;;;;;;;;5011542;28;20041;-86
2022/08/22 05:25:26;;;;;;;4.18;2.10;;;;;;;;;;5011072;28;20455;-83
2022/08/22 05:28:01;;;;;;;4.20;1.63;;;;;;;;;;5012105;28;20048;-83
2022/08/22 05:30:28;;;;;;;2.95;1.70;;;;;;;;;;4996344;28;20154;-83
2022/08/22 05:33:00;;;;;;;5.07;1.73;;;24.20;91.30;;;;;;4996087;28;20067;-83
2022/08/22 05:35:38;;;;;;;2.00;1.33;;;20.30;99.90;;;;;;4929815;28;20046;-83
2022/08/22 05:38:07;;;;;;;2.25;1.08;;;20.20;99.90;;;;;;4930049;28;20550;-84
2022/08/22 05:40:36;;;;;;;4.25;1.85;;;20.30;99.90;;;;;;5000800;28;20048;-87
2022/08/22 05:43:03;;;;;;;4.70;1.50;;;20.20;99.90;;;;;;4928898;28;20438;-89
2022/08/22 05:45:31;;;;;;;2.58;1.30;;;20.30;99.90;;;;;;4999340;28;20967;-86
2022/08/22 05:48:13;;;;;;;4.40;2.15;;;20.20;99.90;;;;;;4993538;28;20375;-87
2022/08/22 05:50:48;;;;;;;2.10;1.40;;;20.30;99.90;;;;;;4999511;28;20188;-86
2022/08/22 05:53:35;;;;;;;3.20;1.55;;;20.30;99.90;;;;;;4993647;28;20052;-86
2022/08/22 05:56:11;;;;;;;3.90;1.75;;;20.30;99.90;;;;;;4931787;28;21206;-87
2022/08/22 05:59:11;;;;;;;5.35;1.45;;;20.30;99.90;;;;;;5001767;28;20055;-87
2022/08/22 06:01:42;;;;;;;2.08;1.52;;;20.40;99.90;;;;;;5011183;28;20052;-87
2022/08/22 06:04:36;;;;;;;2.67;1.60;;;20.40;99.90;;;;;;5010362;28;20047;-87
2022/08/22 06:07:17;;;;;;;4.75;1.50;;;20.40;99.90;;;;;;5012051;28;20473;-86
2022/08/22 06:09:42;;;;;;;4.90;1.83;;;20.40;99.90;;;;;;5002358;28;20255;-87
2022/08/22 06:12:23;;;;;;;3.20;1.25;;;20.40;99.90;;;;;;5012237;28;20179;-87
2022/08/22 06:15:27;;;;;;;3.97;2.15;;;20.40;99.90;;;;;;4994353;28;20054;-87
2022/08/22 06:18:03;;;;;;;2.42;1.10;;;20.50;99.90;;;;;;4994768;28;20555;-86
2022/08/22 06:20:42;;;;;;;2.30;1.20;;;20.60;99.90;;;;;;4992367;28;20044;-86
2022/08/22 06:23:14;;;;;;;2.83;1.20;;;20.60;99.90;;;;;;5000124;28;20048;-87
2022/08/22 06:25:46;;;;;;;2.58;1.20;;;20.60;99.90;;;;;;4993227;28;20531;-87
2022/08/22 06:28:19;;;;;;;4.30;2.10;;;20.60;99.90;;;;;;5000691;28;20519;-86
2022/08/22 06:30:48;;;;;;;4.18;1.30;;;20.70;99.90;;;;;;4991820;28;20052;-86
2022/08/22 06:33:21;;;;;;;4.20;1.25;;;20.80;99.90;;;;;;4928100;28;20819;-86
2022/08/22 06:39:14;;;;;;;3.10;1.48;;;20.80;99.90;;;;;;4928137;28;20047;-83
2022/08/22 06:42:03;;;;;;;2.17;1.70;;;20.90;99.90;;;;;;4991750;28;20047;-83
2022/08/22 06:44:34;;;;;;;4.32;1.10;;;20.90;99.90;;;;;;4989720;28;20145;-83
2022/08/22 06:47:03;;;;;;;2.42;1.23;;;20.80;99.90;;;;;;5007401;28;20422;-83
2022/08/22 06:49:33;;;;;;;5.30;1.70;;;20.90;99.90;;;;;;4991851;28;20550;-83
2022/08/22 06:52:04;;;;;;;4.63;1.65;;;20.80;99.90;;;;;;4998592;28;20101;-83
2022/08/22 06:54:35;;;;;;;4.03;1.30;;;20.90;99.90;;;;;;5009016;28;20044;-83
2022/08/22 06:57:05;;;;;;;4.43;0.93;;;20.90;99.90;;;;;;4992996;28;20545;-83
2022/08/22 06:59:35;;;;;;;5.57;1.30;;;20.90;99.90;;;;;;4999159;28;20040;-83
2022/08/22 07:02:23;;;;;;;3.88;1.33;;;20.90;99.90;;;;;;4992879;28;20067;-83
2022/08/22 07:04:50;;;;;;;3.83;1.42;;;20.90;99.90;;;;;;4927995;28;20241;-84
2022/08/22 07:07:18;;;;;;;4.57;1.35;;;21.00;99.90;;;;;;4993081;28;20048;-83
2022/08/22 07:09:49;;;;;;;7.30;1.60;;;21.00;99.90;;;;;;4994658;28;20446;-83
2022/08/22 07:12:20;;;;;;;4.45;1.30;;;21.00;99.90;;;;;;4929678;28;20534;-83
2022/08/22 07:14:50;;;;;;;2.55;1.40;;;21.10;99.90;;;;;;4993556;28;20059;-83
2022/08/22 07:17:25;;;;;;;2.47;1.15;;;21.10;99.90;;;;;;4994939;28;20044;-83
2022/08/22 07:20:10;;;;;;;6.90;2.47;;;21.20;99.90;;;;;;5010459;28;20079;-83
2022/08/22 07:22:36;;;;;;;2.95;1.30;;;21.20;99.90;;;;;;5010493;28;20041;-83
2022/08/22 07:25:08;;;;;;;2.72;1.60;;;21.30;99.90;;;;;;4995244;28;20127;-83
2022/08/22 07:27:54;;;;;;;2.60;1.25;;;21.30;99.90;;;;;;5001492;28;20105;-83
2022/08/22 07:30:25;;;;;;;4.97;1.65;;;21.40;99.90;;;;;;4928248;28;20068;-83
2022/08/22 07:33:10;;;;;;;7.25;1.90;;;21.60;99.90;;;;;;4993117;28;20051;-83
2022/08/22 07:35:41;;;;;;;6.78;2.75;;;21.60;99.90;;;;;;4927946;28;20095;-83
2022/08/22 07:38:13;;;;;;;6.57;1.73;;;21.70;99.90;;;;;;5001058;28;20123;-84
2022/08/22 07:40:52;;;;;;;4.00;1.95;;;21.70;99.90;;;;;;5008856;28;20055;-84
2022/08/22 07:43:47;;;;;;;3.33;1.80;;;21.60;99.90;;;;;;4992730;28;20051;-83
2022/08/22 07:46:17;;;;;;;6.50;1.70;;;21.60;99.90;;;;;;4926438;28;20082;-83
2022/08/22 07:49:14;;;;;;;3.17;1.50;;;21.60;99.90;;;;;;5010806;28;20055;-83
2022/08/22 07:51:53;;;;;;;3.78;1.75;;;21.80;99.90;;;;;;4932025;28;20153;-83
2022/08/22 07:54:27;;;;;;;6.18;2.35;;;21.80;99.90;;;;;;4993940;28;20114;-83
2022/08/22 07:57:06;;;;;;;2.92;1.70;;;21.80;99.90;;;;;;4994081;28;20526;-84
2022/08/22 07:59:35;;;;;;;6.13;1.65;;;21.80;99.90;;;;;;4928702;28;20539;-83
2022/08/22 08:02:06;;;;;;;7.22;1.98;;;21.90;99.90;;;;;;5010668;28;20044;-83
2022/08/22 08:04:34;;;;;;;5.00;1.70;;;21.90;99.90;;;;;;4993565;28;20048;-84
2022/08/22 08:07:04;;;;;;;5.60;1.90;;;22.00;99.90;;;;;;4999100;28;20056;-83
2022/08/22 08:09:33;;;;;;;4.80;2.25;;;22.00;99.90;;;;;;4927131;28;20170;-84
2022/08/22 08:12:02;;;;;;;2.92;1.70;;;22.00;99.90;;;;;;4994198;28;20047;-84
2022/08/22 08:14:29;;;;;;;3.88;2.05;;;22.30;99.90;;;;;;4930656;28;20139;-83
2022/08/22 08:17:06;;;;;;;4.20;2.08;;;22.30;99.90;;;;;;4999611;28;20044;-84
2022/08/22 08:19:35;;;;;;;6.40;2.17;;;22.40;99.90;;;;;;4997379;28;20048;-83
2022/08/22 08:22:03;;;;;;;6.20;2.13;;;22.40;99.90;;;;;;4999575;28;20052;-84
2022/08/22 08:24:34;;;;;;;7.38;2.13;;;22.50;99.90;;;;;;4930681;28;20602;-83
2022/08/22 08:29:54;;;;;;;4.63;2.58;;;22.70;99.90;;;;;;4930537;28;20044;-83
2022/08/22 08:32:23;;;;;;;3.90;2.00;;;22.80;99.90;;;;;;4930072;28;20044;-84
2022/08/22 08:34:50;;;;;;;5.45;1.83;;;22.80;99.90;;;;;;5012093;28;20048;-84
2022/08/22 08:37:32;;;;;;;6.88;2.17;;;22.80;99.90;;;;;;4996495;28;20081;-84
2022/08/22 08:40:00;;;;;;;;;;;22.70;99.90;;;;;;5012738;28;20043;-84
2022/08/22 08:43:26;;;;;;;4.47;1.60;;;22.70;99.90;;;;;;4994492;28;19985;-83
2022/08/22 08:45:32;;;;;;;5.85;1.80;;;22.60;99.90;;;;;;4929173;28;20539;-84
2022/08/22 08:48:19;;;;;;;5.88;2.92;;;22.60;99.90;;;;;;4994896;28;20051;-84
2022/08/22 08:51:14;;;;;;;7.75;2.03;;;22.50;99.90;;;;;;4929254;28;20036;-84
2022/08/22 08:53:40;;;;;;;6.75;1.60;;;22.60;99.90;;;;;;4950420;28;20114;-84
2022/08/22 08:56:33;;;;;;;3.28;1.55;;;22.60;99.90;;;;;;4996133;28;20035;-85
2022/08/22 08:59:40;;;;;;;2.85;1.20;;;22.80;99.90;;;;;;4995428;28;20111;-84
2022/08/22 09:02:15;;;;;;;2.58;0.95;;;22.80;99.90;;;;;;4955107;28;20194;-85
2022/08/22 09:05:21;;;;;;;1.98;1.02;;;22.80;99.90;;;;;;4995419;28;20561;-85
2022/08/22 09:08:20;;;;;;;1.95;0.90;;;22.80;99.90;;;;;;5010961;28;20063;-85
2022/08/22 09:11:11;;;;;;;1.77;0.88;;;22.80;99.90;;;;;;5001685;28;20079;-85
2022/08/22 09:14:15;;;;;;;1.92;1.00;;;22.80;99.90;;;;;;5010119;28;20485;-84
2022/08/22 09:16:47;;;;;;;4.35;1.52;;;22.90;99.90;;;;;;4929243;28;20048;-84
2022/08/22 09:19:13;;;;;;;1.13;0.73;;;23.10;99.90;;;;;;4994930;28;20040;-84
2022/08/22 09:22:12;;;;;;;1.30;0.85;;;23.10;99.90;;;;;;5011189;28;20443;-85
2022/08/22 09:25:01;;;;;;;1.58;0.60;;;23.10;99.90;;;;;;4928939;28;20055;-85
2022/08/22 09:27:54;;;;;;;1.35;0.55;;;23.10;99.90;;;;;;4928680;28;20043;-84
2022/08/22 09:30:25;;;;;;;0.68;0.50;;;23.00;99.90;;;;;;4995249;28;20048;-85
2022/08/22 09:33:15;;;;;;;1.20;0.55;;;23.10;99.90;;;;;;5011919;28;20534;-85
2022/08/22 09:36:06;;;;;;;0.70;0.70;;;23.20;99.90;;;;;;4995573;28;20127;-85
2022/08/22 09:38:34;;;;;;;1.45;0.70;;;23.30;99.90;;;;;;4995158;28;20155;-85
2022/08/22 09:41:22;;;;;;;1.92;0.63;;;23.20;99.90;;;;;;4930451;28;20700;-84
2022/08/22 09:44:16;;;;;;;0.95;0.40;;;23.20;99.90;;;;;;4928757;28;20083;-84
2022/08/22 09:46:57;;;;;;;1.05;0.68;;;23.20;99.90;;;;;;4992555;28;20048;-85
2022/08/22 09:49:50;;;;;;;1.98;0.50;;;23.20;99.90;;;;;;4929241;28;20553;-84
2022/08/22 09:52:32;;;;;;;0.55;0.50;;;23.30;99.90;;;;;;4994399;28;20597;-84
2022/08/22 09:55:08;;;;;;;0.55;0.30;;;23.50;99.90;;;;;;5000748;28;20559;-85
2022/08/22 09:57:48;;;;;;;0.28;0.28;;;23.60;99.90;;;;;;5010814;28;20536;-85
2022/08/22 10:00:34;;;;;;;1.60;0.95;;;23.70;99.90;;;;;;5011249;28;20461;-85
2022/08/22 10:03:13;;;;;;;0.40;0.25;;;23.80;99.90;;;;;;4994975;28;20066;-85
2022/08/22 10:06:03;;;;;;;0.70;0.70;;;23.90;99.90;;;;;;4928433;28;20527;-85
2022/08/22 10:08:49;;;;;;;0.63;0.30;;;24.00;99.90;;;;;;4995073;28;20079;-84
2022/08/22 10:11:29;;;;;;;0.45;0.30;;;24.00;99.90;;;;;;4994272;28;20031;-84
2022/08/22 10:14:03;;;;;;;0.45;0.32;;;24.10;99.90;;;;;;4993966;28;20113;-85
2022/08/22 10:17:21;;;;;;;0.50;0.30;;;24.10;99.90;;;;;;5009072;28;20118;-85
2022/08/22 10:19:53;;;;;;;3.05;0.43;;;24.20;99.90;;;;;;4939288;28;20341;-84
2022/08/22 10:22:33;;;;;;;0.30;0.30;;;24.20;99.90;;;;;;4928629;28;20205;-85
2022/08/22 10:25:06;;;;;;;0.98;0.50;;;24.30;99.90;;;;;;4993579;28;20052;-84
2022/08/22 10:28:11;;;;;;;1.13;0.30;;;24.20;99.90;;;;;;5009510;28;20056;-85
2022/08/22 10:31:19;;;;;;;0.35;0.32;;;24.00;99.90;;;;;;4927863;28;20530;-85
2022/08/22 10:34:08;;;;;;;1.48;0.65;;;23.90;99.90;;;;;;4993283;28;20620;-84
2022/08/22 10:37:10;;;;;;;0.55;0.35;;;24.00;99.90;;;;;;5010248;28;20205;-85
2022/08/22 10:39:58;;;;;;;0.57;0.30;;;24.20;99.90;;;;;;5010166;28;20051;-84
2022/08/22 10:42:35;;;;;;;0.40;0.38;;;24.40;99.90;;;;;;5010730;28;20058;-84
2022/08/22 10:45:19;;;;;;;0.25;0.22;;;24.40;99.90;;;;;;5002025;28;20048;-85
2022/08/22 10:47:57;;;;;;;0.30;0.30;;;24.50;99.90;;;;;;4993925;28;20088;-85
2022/08/22 10:50:57;;;;;;;0.35;0.28;;;24.60;99.90;;;;;;4928465;28;20048;-85
2022/08/22 10:53:41;;;;;;;0.30;0.30;;;24.70;99.90;;;;;;4911063;28;20056;-85
2022/08/22 10:56:26;;;;;;;0.47;0.38;;;24.70;99.90;;;;;;5011004;28;20537;-84
2022/08/22 10:59:01;;;;;;;0.63;0.35;;;24.80;99.90;;;;;;4995145;28;20052;-84
2022/08/22 11:01:31;;;;;;;1.13;0.22;;;24.80;99.90;;;;;;5000327;28;20056;-85
2022/08/22 11:04:45;;;;;;;0.55;0.50;;;24.90;99.90;;;;;;5010275;28;20589;-85
2022/08/22 11:07:40;;;;;;;0.55;0.40;;;24.90;99.90;;;;;;4990315;28;20053;-84
2022/08/22 11:10:46;;;;;;;0.65;0.60;;;25.00;99.90;;;;;;4994756;28;20039;-85
2022/08/22 11:13:25;;;;;;;0.45;0.43;;;24.90;99.90;;;;;;5011058;28;20135;-85
2022/08/22 11:16:10;;;;;;;0.55;0.40;;;25.00;99.90;;;;;;4996813;28;20115;-84
2022/08/22 11:18:36;;;;;;;0.28;0.20;;;25.10;99.90;;;;;;5012380;28;20110;-84
2022/08/22 11:21:47;;;;;;;1.17;0.40;;;25.00;99.90;;;;;;4995356;28;20044;-85
2022/08/22 11:24:54;;;;;;;0.47;0.30;;;25.10;99.90;;;;;;4950312;28;20128;-85
2022/08/22 11:27:58;;;;;;;0.40;0.40;;;25.30;99.90;;;;;;4927712;28;20281;-85
2022/08/22 11:30:30;;;;;;;0.95;0.50;;;25.30;99.90;;;;;;4950660;28;20034;-84
2022/08/22 11:33:11;;;;;;;0.88;0.55;;;25.20;99.90;;;;;;4952060;28;20643;-84
2022/08/22 11:35:52;;;;;;;0.52;0.40;;;25.20;99.90;;;;;;4978634;28;20580;-84
2022/08/22 11:38:37;;;;;;;3.03;0.70;;;25.20;99.90;;;;;;4994596;28;20036;-83
2022/08/22 11:41:14;;;;;;;1.45;0.50;;;25.20;99.90;;;;;;4928519;28;20044;-85
2022/08/22 11:43:42;;;;;;;1.48;0.60;;;25.30;99.90;;;;;;4999791;28;20510;-84
2022/08/22 11:46:49;;;;;;;1.02;0.50;;;25.30;99.90;;;;;;4927193;28;20052;-85
2022/08/22 11:49:30;;;;;;;0.47;0.43;;;25.50;99.90;;;;;;4933856;28;20056;-85
2022/08/22 11:52:06;;;;;;;1.38;0.40;;;25.60;99.90;;;;;;4931438;28;20285;-84
2022/08/22 11:54:56;;;;;;;0.30;0.30;;;25.60;99.90;;;;;;5013201;28;20048;-85
2022/08/22 11:57:40;;;;;;;0.38;0.30;;;25.70;99.90;;;;;;4932062;28;20518;-84
2022/08/22 12:00:17;;;;;;;0.98;0.47;;;25.80;99.90;;;;;;4930730;28;20596;-84
2022/08/22 12:02:57;;;;;;;1.00;0.60;;;25.70;99.90;;;;;;4996842;28;20522;-84
2022/08/22 12:05:31;;;;;;;2.53;0.60;;;25.80;99.90;;;;;;5013455;28;20076;-85
2022/08/22 12:08:12;;;;;;;0.70;0.40;;;25.80;99.90;;;;;;4997630;28;20284;-85
2022/08/22 12:11:00;;;;;;;0.93;0.73;;;25.70;99.80;;;;;;5014167;28;20502;-84
2022/08/22 12:13:50;;;;;;;0.52;0.47;;;25.70;99.90;;;;;;4930786;28;20878;-84
2022/08/22 12:16:41;;;;;;;2.28;1.55;;;25.80;99.70;;;;;;4931599;28;20551;-84
2022/08/22 12:19:35;;;;;;;2.33;0.70;;;25.90;99.50;;;;;;5013595;28;20062;-84
2022/08/22 12:22:33;;;;;;;0.73;0.47;;;26.00;99.70;;;;;;4930304;28;20611;-85
2022/08/22 12:25:25;;;;;;;0.47;0.32;;;26.10;99.40;;;;;;5013647;28;20111;-84
2022/08/22 12:27:54;;;;;;;0.75;0.70;;;26.00;99.10;;;;;;4938948;28;20131;-85
2022/08/22 12:30:41;;;;;;;1.63;1.00;;;26.00;99.10;;;;;;4930678;28;20071;-85
2022/08/22 12:33:13;;;;;;;0.65;0.50;;;26.00;99.00;;;;;;5013578;28;20749;-84
2022/08/22 12:35:43;;;;;;;1.15;0.65;;;26.00;98.80;;;;;;4930837;28;20127;-84
2022/08/22 12:38:26;;;;;;;0.80;0.40;;;26.00;98.70;;;;;;5012630;28;20040;-84
2022/08/22 12:41:10;;;;;;;0.40;0.30;;;26.00;98.30;;;;;;4929319;28;20054;-85
2022/08/22 12:44:04;;;;;;;0.20;0.20;;;25.80;98.00;;;;;;4929140;28;20055;-84
2022/08/22 12:46:38;;;;;;;2.00;0.50;;;26.20;97.70;;;;;;5014006;28;20044;-84
2022/08/22 12:49:37;;;;;;;0.98;0.52;;;26.30;97.60;;;;;;5012758;28;20044;-84
2022/08/22 12:52:27;;;;;;;1.33;0.57;;;26.30;97.10;;;;;;4929946;28;20048;-84
2022/08/22 12:55:32;;;;;;;0.75;0.50;;;26.20;96.60;;;;;;5010756;28;20055;-84
2022/08/22 12:58:00;;;;;;;0.65;0.40;;;26.20;96.80;;;;;;4952705;28;20042;-85
2022/08/22 13:00:44;;;;;;;1.30;0.55;;;26.30;96.90;;;;;;4973789;28;20054;-84
2022/08/22 13:03:33;;;;;;;2.08;0.50;;;26.40;97.10;;;;;;4977968;28;20792;-85
2022/08/22 13:06:04;;;;;;;1.33;0.60;;;26.50;97.00;;;;;;4995397;28;20052;-85
2022/08/22 13:08:34;;;;;;;;;;;26.50;96.60;;;;;;4930459;28;20527;-84
2022/08/22 13:11:06;;;;;;;0.55;0.45;;;26.60;96.60;;;;;;4931088;28;19923;-84
2022/08/22 13:13:35;;;;;;;0.55;0.38;;;26.60;96.60;;;;;;4930606;28;20536;-85
2022/08/22 13:16:03;;;;;;;1.48;0.73;;;26.60;96.50;;;;;;4930883;28;20044;-85
2022/08/22 13:18:41;;;;;;;0.60;0.50;;;26.60;96.30;;;;;;5011282;28;20492;-84
2022/08/22 13:21:13;;;;;;;0.40;0.40;;;26.60;96.10;;;;;;4929538;28;20043;-85
2022/08/22 13:23:45;;;;;;;0.60;0.40;;;26.60;96.20;;;;;;4995683;28;20794;-84
2022/08/22 13:26:26;;;;;;;0.52;0.50;;;26.60;96.00;;;;;;5011755;28;20121;-84
2022/08/22 13:28:57;;;;;;;0.95;0.50;;;26.70;96.10;;;;;;5011585;28;20047;-85
2022/08/22 13:31:35;;;;;;;1.67;0.52;;;26.80;96.10;;;;;;4995821;28;20037;-85
2022/08/22 13:34:15;;;;;;;2.63;0.95;;;26.80;96.00;;;;;;4994933;28;20051;-85
2022/08/22 13:36:49;;;;;;;1.15;0.65;;;26.80;95.80;;;;;;4928758;28;20044;-84
2022/08/22 13:39:15;;;;;;;0.50;0.50;;;26.70;95.60;;;;;;4929959;28;20044;-84
2022/08/22 13:42:03;;;;;;;0.98;0.57;;;26.60;95.70;;;;;;4994903;28;20043;-85
2022/08/22 13:44:44;;;;;;;0.40;0.38;;;26.60;95.30;;;;;;4994663;28;20055;-85
2022/08/22 13:47:15;;;;;;;1.30;0.50;;;26.60;95.40;;;;;;4996229;28;20044;-84
2022/08/22 13:49:51;;;;;;;1.15;1.00;;;26.50;95.40;;;;;;4995756;28;20094;-85
2022/08/22 13:52:19;;;;;;;0.65;0.50;;;26.40;95.30;;;;;;5012257;28;20048;-84
2022/08/22 13:55:04;;;;;;;0.35;0.32;;;26.30;95.30;;;;;;4928900;28;20045;-84
2022/08/22 13:57:38;;;;;;;2.25;0.77;;;26.20;95.20;;;;;;5002801;28;20039;-85
2022/08/22 14:00:38;;;;;;;3.08;0.52;;;26.10;95.30;;;;;;4996095;28;20565;-84
2022/08/22 14:03:11;;;;;;;0.60;0.57;;;26.00;95.30;;;;;;5011412;28;20044;-85
2022/08/22 14:05:46;;;;;;;0.95;0.50;;;26.00;95.40;;;;;;4996529;28;20063;-84
2022/08/22 14:08:19;;;;;;;0.73;0.40;;;26.00;95.40;;;;;;5013235;28;20518;-85
2022/08/22 14:11:11;;;;;;;0.60;0.45;;;26.10;95.40;;;;;;4996273;28;20213;-84
2022/08/22 14:13:39;;;;;;;;;;;26.20;95.20;;;;;;4929944;28;20044;-85
2022/08/22 14:16:24;;;;;;;0.85;0.38;;;26.20;95.00;;;;;;4997014;28;20006;-84
2022/08/22 14:18:54;;;;;;;0.50;0.40;;;26.20;95.20;;;;;;4997021;28;20082;-84
2022/08/22 14:21:46;;;;;;;1.60;0.55;;;26.30;95.20;;;;;;4996430;28;20071;-84
2022/08/22 14:24:23;;;;;;;;;;;26.40;95.10;;;;;;4995596;28;20043;-85
2022/08/22 14:27:06;;;;;;;0.57;0.32;;;26.50;95.00;;;;;;4995401;28;19927;-85
2022/08/22 14:29:42;;;;;;;0.57;0.32;;;26.50;95.10;;;;;;4995847;28;20047;-85
2022/08/22 14:32:20;;;;;;;0.40;0.40;;;26.50;94.80;;;;;;5010170;28;21139;-84
2022/08/22 14:34:55;;;;;;;0.82;0.45;;;26.40;94.70;;;;;;5011039;28;20556;-84
2022/08/22 14:37:23;;;;;;;1.00;0.50;;;26.40;94.70;;;;;;5012747;28;20046;-85